createdAt,value
2022-07-26T00:01:51.728Z,100726.53
2022-07-26T00:04:22.214Z,100730.47
2022-07-26T00:06:55.116Z,100724.03
2022-07-26T00:09:25.386Z,100721.03
2022-07-26T00:11:55.706Z,100716.53
2022-07-26T00:14:26.010Z,100722.09
2022-07-26T00:16:56.386Z,100719.66
2022-07-26T00:19:26.698Z,100715.19
2022-07-26T00:22:11.638Z,100706.69
2022-07-26T00:24:42.568Z,100714.22
2022-07-26T00:27:12.774Z,100703.72
2022-07-26T00:29:43.000Z,100703.31
2022-07-26T00:32:13.184Z,100693.56
2022-07-26T00:34:43.494Z,100696.47
2022-07-26T00:37:20.384Z,100690.31
2022-07-26T00:39:51.122Z,100688.09
2022-07-26T00:42:21.440Z,100682.91
2022-07-26T00:44:51.691Z,100690.25
2022-07-26T00:47:21.951Z,100687.13
2022-07-26T00:49:52.152Z,100683.34
2022-07-26T00:52:25.129Z,100682.22
2022-07-26T00:54:56.444Z,100686.16
2022-07-26T00:57:26.899Z,100684.91
2022-07-26T00:59:57.114Z,100686.97
2022-07-26T01:02:27.379Z,100680.06
2022-07-26T01:04:57.673Z,100682.25
2022-07-26T01:07:30.843Z,100677.38
2022-07-26T01:10:01.069Z,100670.00
2022-07-26T01:12:31.340Z,100675.09
2022-07-26T01:15:01.531Z,100674.34
2022-07-26T01:17:31.723Z,100673.59
2022-07-26T01:20:05.420Z,100673.75
2022-07-26T01:22:38.401Z,100669.28
2022-07-26T01:25:10.070Z,100665.44
2022-07-26T01:27:42.159Z,100664.94
2022-07-26T01:30:14.619Z,100671.69
2022-07-26T01:32:44.945Z,100665.72
2022-07-26T01:35:15.588Z,100664.03
2022-07-26T01:37:48.423Z,100663.19
2022-07-26T01:40:18.635Z,100661.03
2022-07-26T01:42:48.947Z,100661.03
2022-07-26T01:45:19.176Z,100658.16
2022-07-26T01:47:50.487Z,100666.44
2022-07-26T01:50:21.721Z,100664.44
2022-07-26T01:52:54.560Z,100670.16
2022-07-26T01:55:25.001Z,100652.94
2022-07-26T01:57:55.281Z,100651.59
2022-07-26T02:00:25.541Z,100666.56
2022-07-26T02:02:56.008Z,100640.34
2022-07-26T02:05:26.582Z,100655.63
2022-07-26T02:07:59.366Z,100658.16
2022-07-26T02:10:51.632Z,100663.56
2022-07-26T02:13:22.031Z,100666.31
2022-07-26T02:15:52.280Z,100664.16
2022-07-26T02:18:22.568Z,100661.22
2022-07-26T02:20:52.792Z,100666.78
2022-07-26T02:23:26.525Z,100667.03
2022-07-26T02:25:57.627Z,100660.81
2022-07-26T02:28:27.895Z,100662.94
2022-07-26T02:30:58.163Z,100662.38
2022-07-26T02:33:28.500Z,100656.81
2022-07-26T02:35:58.700Z,100657.16
2022-07-26T02:38:31.548Z,100661.91
2022-07-26T02:41:01.816Z,100653.50
2022-07-26T02:43:32.668Z,100657.47
2022-07-26T02:46:02.897Z,100662.44
2022-07-26T02:48:33.598Z,100663.94
2022-07-26T02:51:03.861Z,100660.00
2022-07-26T02:53:36.709Z,100659.25
2022-07-26T02:56:07.147Z,100656.63
2022-07-26T02:58:37.248Z,100662.50
2022-07-26T03:01:07.835Z,100664.75
2022-07-26T03:03:38.777Z,100663.59
2022-07-26T03:06:09.084Z,100666.59
2022-07-26T03:08:41.950Z,100673.59
2022-07-26T03:11:12.484Z,100669.00
2022-07-26T03:13:42.740Z,100672.47
2022-07-26T03:16:16.158Z,100666.38
2022-07-26T03:18:48.320Z,100668.84
2022-07-26T03:21:18.579Z,100677.31
2022-07-26T03:23:51.533Z,100676.53
2022-07-26T03:26:21.816Z,100683.19
2022-07-26T03:28:52.071Z,100686.97
2022-07-26T03:31:23.756Z,100684.25
2022-07-26T03:33:54.017Z,100694.66
2022-07-26T03:36:24.240Z,100691.53
2022-07-26T03:38:57.063Z,100693.41
2022-07-26T03:41:27.235Z,100690.75
2022-07-26T03:43:57.463Z,100685.47
2022-07-26T03:46:27.770Z,100685.97
2022-07-26T03:48:58.090Z,100690.91
2022-07-26T03:51:28.555Z,100694.69
2022-07-26T03:54:01.331Z,100691.84
2022-07-26T03:56:34.839Z,100691.31
2022-07-26T03:59:08.271Z,100688.25
2022-07-26T04:01:42.064Z,100691.97
2022-07-26T04:04:13.467Z,100691.81
2022-07-26T04:06:44.980Z,100694.16
2022-07-26T04:09:18.280Z,100687.81
2022-07-26T04:11:48.950Z,100689.84
2022-07-26T04:14:19.950Z,100692.78
2022-07-26T04:16:50.355Z,100680.03
2022-07-26T04:19:20.611Z,100688.59
2022-07-26T04:21:50.817Z,100685.28
2022-07-26T04:24:25.345Z,100689.53
2022-07-26T04:26:56.131Z,100681.13
2022-07-26T04:29:26.324Z,100689.41
2022-07-26T04:31:56.479Z,100682.91
2022-07-26T04:34:26.697Z,100690.22
2022-07-26T04:36:56.876Z,100687.72
2022-07-26T04:39:29.727Z,100695.69
2022-07-26T04:42:00.065Z,100693.47
2022-07-26T04:44:30.332Z,100692.38
2022-07-26T04:47:00.531Z,100697.44
2022-07-26T04:49:31.350Z,100701.91
2022-07-26T04:52:01.855Z,100700.72
2022-07-26T04:54:34.739Z,100702.25
2022-07-26T04:57:04.946Z,100700.44
2022-07-26T04:59:35.141Z,100707.44
2022-07-26T05:02:05.495Z,100704.19
2022-07-26T05:04:35.793Z,100711.78
2022-07-26T05:07:06.078Z,100709.56
2022-07-26T05:09:38.875Z,100703.53
2022-07-26T05:12:10.206Z,100710.91
2022-07-26T05:14:40.538Z,100702.22
2022-07-26T05:17:11.391Z,100696.78
2022-07-26T05:19:47.454Z,100690.75
2022-07-26T05:22:19.296Z,100696.63
2022-07-26T05:24:52.162Z,100694.06
2022-07-26T05:27:22.385Z,100689.53
2022-07-26T05:29:52.636Z,100696.38
2022-07-26T05:32:22.894Z,100683.16
2022-07-26T05:34:53.685Z,100686.16
2022-07-26T05:37:23.932Z,100682.53
2022-07-26T05:39:56.817Z,100690.22
2022-07-26T05:42:27.134Z,100689.78
2022-07-26T05:44:57.359Z,100687.59
2022-07-26T05:47:28.092Z,100678.56
2022-07-26T05:49:58.345Z,100682.13
2022-07-26T05:52:28.726Z,100680.84
2022-07-26T05:55:02.099Z,100684.94
2022-07-26T05:57:32.345Z,100682.28
2022-07-26T06:00:02.523Z,100681.22
2022-07-26T06:02:32.861Z,100690.53
2022-07-26T06:05:03.103Z,100692.19
2022-07-26T06:07:33.409Z,100683.97
2022-07-26T06:10:06.523Z,100680.97
2022-07-26T06:12:36.850Z,100678.06
2022-07-26T06:15:15.456Z,100676.56
2022-07-26T06:17:46.301Z,100669.88
2022-07-26T06:20:16.523Z,100671.56
2022-07-26T06:22:46.729Z,100670.78
2022-07-26T06:25:19.738Z,100666.75
2022-07-26T06:27:49.989Z,100660.13
2022-07-26T06:30:20.350Z,100656.66
2022-07-26T06:32:50.705Z,100663.09
2022-07-26T06:35:20.960Z,100659.69
2022-07-26T06:37:51.171Z,100660.75
2022-07-26T06:40:24.009Z,100657.09
2022-07-26T06:42:54.260Z,100665.19
2022-07-26T06:45:24.604Z,100657.53
2022-07-26T06:47:54.902Z,100665.19
2022-07-26T06:50:26.612Z,100661.94
2022-07-26T06:52:56.932Z,100656.31
2022-07-26T06:55:29.846Z,100654.88
2022-07-26T06:58:00.086Z,100656.78
2022-07-26T07:00:30.885Z,100661.09
2022-07-26T07:03:01.094Z,100649.22
2022-07-26T07:05:31.371Z,100671.16
2022-07-26T07:08:01.697Z,100662.53
2022-07-26T07:10:35.321Z,100659.69
2022-07-26T07:13:06.280Z,100653.50
2022-07-26T07:15:36.594Z,100651.47
2022-07-26T07:18:06.798Z,100654.31
2022-07-26T07:20:37.423Z,100659.06
2022-07-26T07:23:07.699Z,100655.72
2022-07-26T07:25:40.511Z,100653.66
2022-07-26T07:28:10.760Z,100656.47
2022-07-26T07:30:41.007Z,100654.25
2022-07-26T07:33:22.488Z,100638.22
2022-07-26T07:35:54.101Z,100658.94
2022-07-26T07:38:24.429Z,100650.03
2022-07-26T07:40:57.452Z,100650.53
2022-07-26T07:43:27.663Z,100649.84
2022-07-26T07:45:57.853Z,100659.25
2022-07-26T07:48:28.152Z,100647.63
2022-07-26T07:50:58.399Z,100645.66
2022-07-26T07:53:30.508Z,100645.38
2022-07-26T07:56:04.264Z,100641.50
2022-07-26T07:58:34.462Z,100639.81
2022-07-26T08:01:04.811Z,100641.03
2022-07-26T08:03:38.109Z,100639.66
2022-07-26T08:06:12.399Z,100639.63
2022-07-26T08:08:43.000Z,100634.69
2022-07-26T08:11:16.276Z,100641.25
2022-07-26T08:13:48.065Z,100631.00
2022-07-26T08:16:18.570Z,100629.81
2022-07-26T08:18:57.054Z,100626.78
2022-07-26T08:21:29.248Z,100636.97
2022-07-26T08:23:59.689Z,100631.19
2022-07-26T08:26:32.551Z,100632.28
2022-07-26T08:29:02.748Z,100622.47
2022-07-26T08:31:33.179Z,100626.16
2022-07-26T08:34:03.487Z,100629.00
2022-07-26T08:36:33.756Z,100625.31
2022-07-26T08:39:04.337Z,100628.91
2022-07-26T08:41:40.523Z,100624.56
2022-07-26T08:44:11.991Z,100629.25
2022-07-26T08:46:43.575Z,100621.72
2022-07-26T08:49:15.496Z,100626.81
2022-07-26T08:51:47.006Z,100625.53
2022-07-26T08:54:18.671Z,100634.44
2022-07-26T08:56:56.746Z,100626.25
2022-07-26T08:59:26.975Z,100626.25
2022-07-26T09:01:59.181Z,100619.19
2022-07-26T09:04:32.736Z,100622.13
2022-07-26T09:07:07.172Z,100621.09
2022-07-26T09:09:39.394Z,100621.63
2022-07-26T09:12:23.233Z,100618.38
2022-07-26T09:14:53.833Z,100619.47
2022-07-26T09:17:26.643Z,100616.34
2022-07-26T09:20:10.245Z,100612.63
2022-07-26T09:22:41.743Z,100617.38
2022-07-26T09:25:27.842Z,100610.88
2022-07-26T09:28:00.838Z,100607.81
2022-07-26T09:30:32.060Z,100604.63
2022-07-26T09:33:05.177Z,100605.59
2022-07-26T09:35:50.746Z,100592.88
2022-07-26T09:38:22.694Z,100600.97
2022-07-26T09:40:55.632Z,100595.59
2022-07-26T09:43:39.777Z,100598.72
2022-07-26T09:46:11.306Z,100585.00
2022-07-26T09:49:08.272Z,100593.72
2022-07-26T09:51:40.754Z,100587.50
2022-07-26T09:54:11.982Z,100589.88
2022-07-26T09:56:50.284Z,100585.53
2022-07-26T09:59:24.706Z,100585.28
2022-07-26T10:01:56.648Z,100579.59
2022-07-26T10:04:27.811Z,100580.06
2022-07-26T10:06:58.935Z,100575.78
2022-07-26T10:09:34.069Z,100583.47
2022-07-26T10:12:06.175Z,100572.44
2022-07-26T10:14:48.321Z,100575.13
2022-07-26T10:17:49.555Z,100572.91
2022-07-26T10:20:50.576Z,100562.00
2022-07-26T10:23:42.948Z,100568.75
2022-07-26T10:26:45.851Z,100565.25
2022-07-26T10:29:26.276Z,100560.63
2022-07-26T10:32:23.571Z,100560.53
2022-07-26T10:34:53.833Z,100558.69
2022-07-26T10:37:28.264Z,100560.06
2022-07-26T10:40:21.284Z,100555.94
2022-07-26T10:42:51.624Z,100563.06
